sensor_id;sensor_type;location;lat;lon;timestamp;temperature;humidity
45729;DHT22;31439;53.512;10.206;2023-02-26T00:00:10;1.10;99.90
45729;DHT22;31439;53.512;10.206;2023-02-26T00:02:42;1.00;99.90
45729;DHT22;31439;53.512;10.206;2023-02-26T00:05:11;1.00;99.90
45729;DHT22;31439;53.512;10.206;2023-02-26T00:07:37;1.00;99.90
45729;DHT22;31439;53.512;10.206;2023-02-26T00:10:05;1.00;99.90
45729;DHT22;31439;53.512;10.206;2023-02-26T00:12:31;1.00;99.90
45729;DHT22;31439;53.512;10.206;2023-02-26T00:14:58;1.10;99.90
45729;DHT22;31439;53.512;10.206;2023-02-26T00:18:14;1.10;99.90
45729;DHT22;31439;53.512;10.206;2023-02-26T00:20:26;1.10;99.90
45729;DHT22;31439;53.512;10.206;2023-02-26T00:22:52;1.10;99.90
45729;DHT22;31439;53.512;10.206;2023-02-26T00:25:18;1.00;99.90
45729;DHT22;31439;53.512;10.206;2023-02-26T00:27:44;1.10;99.90
45729;DHT22;31439;53.512;10.206;2023-02-26T00:30:10;1.00;99.90
45729;DHT22;31439;53.512;10.206;2023-02-26T00:32:37;1.00;99.90
45729;DHT22;31439;53.512;10.206;2023-02-26T00:35:07;1.00;99.90
45729;DHT22;31439;53.512;10.206;2023-02-26T00:43:11;1.00;99.90
45729;DHT22;31439;53.512;10.206;2023-02-26T00:45:46;0.90;99.90
45729;DHT22;31439;53.512;10.206;2023-02-26T00:53:58;0.90;99.90
45729;DHT22;31439;53.512;10.206;2023-02-26T00:56:27;0.60;99.90
45729;DHT22;31439;53.512;10.206;2023-02-26T00:58:52;1.00;99.90
45729;DHT22;31439;53.512;10.206;2023-02-26T01:01:18;0.90;99.90
45729;DHT22;31439;53.512;10.206;2023-02-26T01:03:44;1.00;99.90
45729;DHT22;31439;53.512;10.206;2023-02-26T01:06:15;0.90;99.90
45729;DHT22;31439;53.512;10.206;2023-02-26T01:08:52;0.90;99.90
45729;DHT22;31439;53.512;10.206;2023-02-26T01:11:19;0.90;99.90
45729;DHT22;31439;53.512;10.206;2023-02-26T01:13:45;0.90;99.90
45729;DHT22;31439;53.512;10.206;2023-02-26T01:16:13;0.80;99.90
45729;DHT22;31439;53.512;10.206;2023-02-26T01:18:49;0.70;99.90
45729;DHT22;31439;53.512;10.206;2023-02-26T01:21:31;0.70;99.90
45729;DHT22;31439;53.512;10.206;2023-02-26T01:23:59;0.70;99.90
45729;DHT22;31439;53.512;10.206;2023-02-26T01:26:28;0.70;99.90
45729;DHT22;31439;53.512;10.206;2023-02-26T01:28:54;0.50;99.90
45729;DHT22;31439;53.512;10.206;2023-02-26T01:31:41;0.60;99.90
45729;DHT22;31439;53.512;10.206;2023-02-26T01:34:18;0.60;99.90
45729;DHT22;31439;53.512;10.206;2023-02-26T01:36:49;0.70;99.90
45729;DHT22;31439;53.512;10.206;2023-02-26T01:39:31;0.70;99.90
45729;DHT22;31439;53.512;10.206;2023-02-26T01:42:16;0.70;99.90
45729;DHT22;31439;53.512;10.206;2023-02-26T01:47:39;0.80;99.90
45729;DHT22;31439;53.512;10.206;2023-02-26T01:50:14;0.70;99.90
45729;DHT22;31439;53.512;10.206;2023-02-26T01:55:19;0.60;99.90
45729;DHT22;31439;53.512;10.206;2023-02-26T01:57:46;0.70;99.90
45729;DHT22;31439;53.512;10.206;2023-02-26T02:00:13;0.60;99.90
45729;DHT22;31439;53.512;10.206;2023-02-26T02:02:40;0.70;99.90
45729;DHT22;31439;53.512;10.206;2023-02-26T02:05:17;0.70;99.90
45729;DHT22;31439;53.512;10.206;2023-02-26T02:07:46;0.70;99.90
45729;DHT22;31439;53.512;10.206;2023-02-26T02:10:11;0.70;99.90
45729;DHT22;31439;53.512;10.206;2023-02-26T02:12:44;0.70;99.90
45729;DHT22;31439;53.512;10.206;2023-02-26T02:23:46;0.60;99.90
45729;DHT22;31439;53.512;10.206;2023-02-26T02:26:39;0.60;99.90
45729;DHT22;31439;53.512;10.206;2023-02-26T02:35:02;0.70;99.90
45729;DHT22;31439;53.512;10.206;2023-02-26T02:40:30;0.60;99.90
45729;DHT22;31439;53.512;10.206;2023-02-26T02:42:58;0.70;99.90
45729;DHT22;31439;53.512;10.206;2023-02-26T02:45:40;0.60;99.90
45729;DHT22;31439;53.512;10.206;2023-02-26T02:48:26;0.50;99.90
45729;DHT22;31439;53.512;10.206;2023-02-26T02:56:40;0.70;99.90
45729;DHT22;31439;53.512;10.206;2023-02-26T02:59:56;0.70;99.90
45729;DHT22;31439;53.512;10.206;2023-02-26T03:02:31;0.60;99.90
45729;DHT22;31439;53.512;10.206;2023-02-26T03:04:55;0.60;99.90
45729;DHT22;31439;53.512;10.206;2023-02-26T03:07:22;0.70;99.90
45729;DHT22;31439;53.512;10.206;2023-02-26T03:09:48;0.70;99.90
45729;DHT22;31439;53.512;10.206;2023-02-26T03:12:14;0.70;99.90
45729;DHT22;31439;53.512;10.206;2023-02-26T03:14:41;0.60;99.90
45729;DHT22;31439;53.512;10.206;2023-02-26T03:22:40;0.50;99.90
45729;DHT22;31439;53.512;10.206;2023-02-26T03:30:50;0.60;99.90
45729;DHT22;31439;53.512;10.206;2023-02-26T03:36:02;0.60;99.90
45729;DHT22;31439;53.512;10.206;2023-02-26T03:38:48;0.60;99.90
45729;DHT22;31439;53.512;10.206;2023-02-26T03:41:39;0.60;99.90
45729;DHT22;31439;53.512;10.206;2023-02-26T03:44:11;0.50;99.90
45729;DHT22;31439;53.512;10.206;2023-02-26T03:46:51;0.40;99.90
45729;DHT22;31439;53.512;10.206;2023-02-26T03:49:26;0.40;99.90
45729;DHT22;31439;53.512;10.206;2023-02-26T03:51:56;0.40;99.90
45729;DHT22;31439;53.512;10.206;2023-02-26T03:54:28;0.40;99.90
45729;DHT22;31439;53.512;10.206;2023-02-26T03:56:55;0.30;99.90
45729;DHT22;31439;53.512;10.206;2023-02-26T03:59:21;0.30;99.90
45729;DHT22;31439;53.512;10.206;2023-02-26T04:02:10;0.30;99.90
45729;DHT22;31439;53.512;10.206;2023-02-26T04:05:00;0.30;99.90
45729;DHT22;31439;53.512;10.206;2023-02-26T04:07:26;0.30;99.90
45729;DHT22;31439;53.512;10.206;2023-02-26T04:09:52;0.30;99.90
45729;DHT22;31439;53.512;10.206;2023-02-26T04:12:23;0.30;99.90
45729;DHT22;31439;53.512;10.206;2023-02-26T04:14:49;0.30;99.90
45729;DHT22;31439;53.512;10.206;2023-02-26T04:17:15;0.30;99.90
45729;DHT22;31439;53.512;10.206;2023-02-26T04:19:40;0.30;99.90
45729;DHT22;31439;53.512;10.206;2023-02-26T04:22:06;0.30;99.90
45729;DHT22;31439;53.512;10.206;2023-02-26T04:24:31;0.20;99.90
45729;DHT22;31439;53.512;10.206;2023-02-26T04:26:57;0.30;99.90
45729;DHT22;31439;53.512;10.206;2023-02-26T04:29:26;0.30;99.90
45729;DHT22;31439;53.512;10.206;2023-02-26T04:31:52;0.20;99.90
45729;DHT22;31439;53.512;10.206;2023-02-26T04:34:18;0.20;99.90
45729;DHT22;31439;53.512;10.206;2023-02-26T04:36:44;0.20;99.90
45729;DHT22;31439;53.512;10.206;2023-02-26T04:39:10;0.20;99.90
45729;DHT22;31439;53.512;10.206;2023-02-26T04:41:36;0.30;99.90
45729;DHT22;31439;53.512;10.206;2023-02-26T04:44:03;0.20;99.90
45729;DHT22;31439;53.512;10.206;2023-02-26T04:46:29;0.30;99.90
45729;DHT22;31439;53.512;10.206;2023-02-26T04:48:55;0.20;99.90
45729;DHT22;31439;53.512;10.206;2023-02-26T04:51:21;0.20;99.90
45729;DHT22;31439;53.512;10.206;2023-02-26T04:53:47;0.20;99.90
45729;DHT22;31439;53.512;10.206;2023-02-26T04:56:13;0.10;99.90
45729;DHT22;31439;53.512;10.206;2023-02-26T04:58:39;0.20;99.90
45729;DHT22;31439;53.512;10.206;2023-02-26T05:01:05;0.20;99.90
45729;DHT22;31439;53.512;10.206;2023-02-26T05:03:31;0.10;99.90
45729;DHT22;31439;53.512;10.206;2023-02-26T05:05:57;0.10;99.90
45729;DHT22;31439;53.512;10.206;2023-02-26T05:08:23;0.10;99.90
45729;DHT22;31439;53.512;10.206;2023-02-26T05:10:50;0.10;99.90
45729;DHT22;31439;53.512;10.206;2023-02-26T05:13:17;0.10;99.90
45729;DHT22;31439;53.512;10.206;2023-02-26T05:15:42;0.10;99.90
45729;DHT22;31439;53.512;10.206;2023-02-26T05:18:08;0.10;99.90
45729;DHT22;31439;53.512;10.206;2023-02-26T05:20:33;0.00;99.90
45729;DHT22;31439;53.512;10.206;2023-02-26T05:22:59;0.00;99.90
45729;DHT22;31439;53.512;10.206;2023-02-26T05:25:25;0.00;99.90
45729;DHT22;31439;53.512;10.206;2023-02-26T05:27:50;-0.10;99.90
45729;DHT22;31439;53.512;10.206;2023-02-26T05:30:16;-0.10;99.90
45729;DHT22;31439;53.512;10.206;2023-02-26T05:32:43;-0.30;99.90
45729;DHT22;31439;53.512;10.206;2023-02-26T05:35:09;-0.20;99.90
45729;DHT22;31439;53.512;10.206;2023-02-26T05:37:35;-0.20;99.90
45729;DHT22;31439;53.512;10.206;2023-02-26T05:40:01;-0.20;99.90
45729;DHT22;31439;53.512;10.206;2023-02-26T05:42:27;-0.20;99.90
45729;DHT22;31439;53.512;10.206;2023-02-26T05:44:52;-0.30;99.90
45729;DHT22;31439;53.512;10.206;2023-02-26T05:47:18;-0.30;99.90
45729;DHT22;31439;53.512;10.206;2023-02-26T05:49:44;-0.30;99.90
45729;DHT22;31439;53.512;10.206;2023-02-26T05:52:09;-0.30;99.90
45729;DHT22;31439;53.512;10.206;2023-02-26T05:54:35;-0.40;99.90
45729;DHT22;31439;53.512;10.206;2023-02-26T05:57:01;-0.30;99.90
45729;DHT22;31439;53.512;10.206;2023-02-26T05:59:26;-0.20;99.90
45729;DHT22;31439;53.512;10.206;2023-02-26T06:01:52;-0.20;99.90
45729;DHT22;31439;53.512;10.206;2023-02-26T06:04:18;-0.20;99.90
45729;DHT22;31439;53.512;10.206;2023-02-26T06:06:44;-0.20;99.90
45729;DHT22;31439;53.512;10.206;2023-02-26T06:09:09;-0.30;99.90
45729;DHT22;31439;53.512;10.206;2023-02-26T06:11:35;-0.30;99.90
45729;DHT22;31439;53.512;10.206;2023-02-26T06:14:02;-0.30;99.90
45729;DHT22;31439;53.512;10.206;2023-02-26T06:16:28;-0.20;99.90
45729;DHT22;31439;53.512;10.206;2023-02-26T06:18:54;-0.30;99.90
45729;DHT22;31439;53.512;10.206;2023-02-26T06:21:20;-0.30;99.90
45729;DHT22;31439;53.512;10.206;2023-02-26T06:23:45;-0.30;99.90
45729;DHT22;31439;53.512;10.206;2023-02-26T06:26:11;-0.30;99.90
45729;DHT22;31439;53.512;10.206;2023-02-26T06:28:37;-0.30;99.90
45729;DHT22;31439;53.512;10.206;2023-02-26T06:31:02;-0.30;99.90
45729;DHT22;31439;53.512;10.206;2023-02-26T06:33:28;-0.30;99.90
45729;DHT22;31439;53.512;10.206;2023-02-26T06:35:54;-0.30;99.90
45729;DHT22;31439;53.512;10.206;2023-02-26T06:38:22;-0.30;99.90
45729;DHT22;31439;53.512;10.206;2023-02-26T06:40:48;-0.20;99.90
45729;DHT22;31439;53.512;10.206;2023-02-26T06:43:14;-0.10;99.90
45729;DHT22;31439;53.512;10.206;2023-02-26T06:45:39;-0.20;99.90
45729;DHT22;31439;53.512;10.206;2023-02-26T06:48:05;-0.20;99.90
45729;DHT22;31439;53.512;10.206;2023-02-26T06:50:31;-0.20;99.90
45729;DHT22;31439;53.512;10.206;2023-02-26T06:52:57;-0.30;99.90
45729;DHT22;31439;53.512;10.206;2023-02-26T06:55:23;-0.20;99.90
45729;DHT22;31439;53.512;10.206;2023-02-26T06:57:55;-0.20;99.90
45729;DHT22;31439;53.512;10.206;2023-02-26T07:00:22;-0.20;99.90
45729;DHT22;31439;53.512;10.206;2023-02-26T07:02:48;0.00;99.90
45729;DHT22;31439;53.512;10.206;2023-02-26T07:05:14;-0.10;99.90
45729;DHT22;31439;53.512;10.206;2023-02-26T07:07:40;-0.20;99.90
45729;DHT22;31439;53.512;10.206;2023-02-26T07:10:06;-0.20;99.90
45729;DHT22;31439;53.512;10.206;2023-02-26T07:12:32;-0.10;99.90
45729;DHT22;31439;53.512;10.206;2023-02-26T07:14:57;0.00;99.90
45729;DHT22;31439;53.512;10.206;2023-02-26T07:17:23;0.00;99.90
45729;DHT22;31439;53.512;10.206;2023-02-26T07:19:50;0.10;99.90
45729;DHT22;31439;53.512;10.206;2023-02-26T07:22:17;0.10;99.90
45729;DHT22;31439;53.512;10.206;2023-02-26T07:24:43;0.20;99.90
45729;DHT22;31439;53.512;10.206;2023-02-26T07:27:09;0.20;99.90
45729;DHT22;31439;53.512;10.206;2023-02-26T07:29:35;0.30;99.90
45729;DHT22;31439;53.512;10.206;2023-02-26T07:32:01;0.40;99.90
45729;DHT22;31439;53.512;10.206;2023-02-26T07:34:27;0.50;99.90
45729;DHT22;31439;53.512;10.206;2023-02-26T07:36:53;0.50;99.90
45729;DHT22;31439;53.512;10.206;2023-02-26T07:39:19;0.60;99.90
45729;DHT22;31439;53.512;10.206;2023-02-26T07:41:44;0.60;99.90
45729;DHT22;31439;53.512;10.206;2023-02-26T07:44:11;0.70;99.90
45729;DHT22;31439;53.512;10.206;2023-02-26T07:46:37;0.80;99.90
45729;DHT22;31439;53.512;10.206;2023-02-26T07:49:02;0.80;99.90
45729;DHT22;31439;53.512;10.206;2023-02-26T07:51:28;0.90;99.90
45729;DHT22;31439;53.512;10.206;2023-02-26T07:53:54;0.90;99.90
45729;DHT22;31439;53.512;10.206;2023-02-26T07:56:19;0.90;99.90
45729;DHT22;31439;53.512;10.206;2023-02-26T07:58:45;1.00;99.90
45729;DHT22;31439;53.512;10.206;2023-02-26T08:01:11;1.10;99.90
45729;DHT22;31439;53.512;10.206;2023-02-26T08:03:36;1.10;99.90
45729;DHT22;31439;53.512;10.206;2023-02-26T08:06:02;1.10;99.90
45729;DHT22;31439;53.512;10.206;2023-02-26T08:08:29;1.20;99.90
45729;DHT22;31439;53.512;10.206;2023-02-26T08:10:57;1.30;99.90
45729;DHT22;31439;53.512;10.206;2023-02-26T08:13:23;1.40;99.90
45729;DHT22;31439;53.512;10.206;2023-02-26T08:15:48;1.40;99.90
45729;DHT22;31439;53.512;10.206;2023-02-26T08:18:14;1.40;99.90
45729;DHT22;31439;53.512;10.206;2023-02-26T08:20:40;1.30;99.90
45729;DHT22;31439;53.512;10.206;2023-02-26T08:23:05;1.30;99.90
45729;DHT22;31439;53.512;10.206;2023-02-26T08:25:32;1.40;99.90
45729;DHT22;31439;53.512;10.206;2023-02-26T08:27:57;1.40;99.90
45729;DHT22;31439;53.512;10.206;2023-02-26T08:30:24;1.50;99.90
45729;DHT22;31439;53.512;10.206;2023-02-26T08:32:49;1.50;99.90
45729;DHT22;31439;53.512;10.206;2023-02-26T08:35:15;1.50;99.90
45729;DHT22;31439;53.512;10.206;2023-02-26T08:37:41;1.60;99.90
45729;DHT22;31439;53.512;10.206;2023-02-26T08:40:08;1.60;99.90
45729;DHT22;31439;53.512;10.206;2023-02-26T08:42:34;1.70;99.90
45729;DHT22;31439;53.512;10.206;2023-02-26T08:45:00;1.70;99.90
45729;DHT22;31439;53.512;10.206;2023-02-26T08:47:26;1.80;99.90
45729;DHT22;31439;53.512;10.206;2023-02-26T08:49:51;1.90;99.90
45729;DHT22;31439;53.512;10.206;2023-02-26T08:52:18;1.90;99.90
45729;DHT22;31439;53.512;10.206;2023-02-26T08:54:44;2.00;99.90
45729;DHT22;31439;53.512;10.206;2023-02-26T08:57:09;2.10;99.90
45729;DHT22;31439;53.512;10.206;2023-02-26T08:59:35;2.00;99.90
45729;DHT22;31439;53.512;10.206;2023-02-26T09:02:01;2.10;99.90
45729;DHT22;31439;53.512;10.206;2023-02-26T09:04:26;2.20;99.90
45729;DHT22;31439;53.512;10.206;2023-02-26T09:06:53;2.20;99.90
45729;DHT22;31439;53.512;10.206;2023-02-26T09:09:19;2.20;99.90
45729;DHT22;31439;53.512;10.206;2023-02-26T09:11:45;2.30;99.90
45729;DHT22;31439;53.512;10.206;2023-02-26T09:14:11;2.40;99.90
45729;DHT22;31439;53.512;10.206;2023-02-26T09:16:36;2.40;99.90
45729;DHT22;31439;53.512;10.206;2023-02-26T09:19:04;2.50;99.90
45729;DHT22;31439;53.512;10.206;2023-02-26T09:21:31;2.50;99.90
45729;DHT22;31439;53.512;10.206;2023-02-26T09:23:56;2.50;99.90
45729;DHT22;31439;53.512;10.206;2023-02-26T09:26:23;2.50;99.90
45729;DHT22;31439;53.512;10.206;2023-02-26T09:28:48;2.60;99.90
45729;DHT22;31439;53.512;10.206;2023-02-26T09:31:17;2.60;99.90
45729;DHT22;31439;53.512;10.206;2023-02-26T09:33:43;2.60;99.90
45729;DHT22;31439;53.512;10.206;2023-02-26T09:36:09;2.60;99.90
45729;DHT22;31439;53.512;10.206;2023-02-26T09:38:35;2.60;99.90
45729;DHT22;31439;53.512;10.206;2023-02-26T09:41:13;2.70;99.90
45729;DHT22;31439;53.512;10.206;2023-02-26T09:46:31;2.80;99.90
45729;DHT22;31439;53.512;10.206;2023-02-26T09:51:59;2.80;99.90
45729;DHT22;31439;53.512;10.206;2023-02-26T09:54:30;2.80;99.90
45729;DHT22;31439;53.512;10.206;2023-02-26T09:56:59;2.80;99.90
45729;DHT22;31439;53.512;10.206;2023-02-26T09:59:31;2.80;99.90
45729;DHT22;31439;53.512;10.206;2023-02-26T10:02:04;2.90;99.90
45729;DHT22;31439;53.512;10.206;2023-02-26T10:12:51;3.30;99.90
45729;DHT22;31439;53.512;10.206;2023-02-26T10:15:24;3.40;99.90
45729;DHT22;31439;53.512;10.206;2023-02-26T10:21:12;3.60;99.90
45729;DHT22;31439;53.512;10.206;2023-02-26T10:23:45;3.70;99.90
45729;DHT22;31439;53.512;10.206;2023-02-26T10:34:37;3.80;99.90
45729;DHT22;31439;53.512;10.206;2023-02-26T10:37:17;3.80;99.90
45729;DHT22;31439;53.512;10.206;2023-02-26T10:51:17;4.40;99.90
45729;DHT22;31439;53.512;10.206;2023-02-26T10:53:53;4.30;99.90
45729;DHT22;31439;53.512;10.206;2023-02-26T10:56:31;4.20;99.90
45729;DHT22;31439;53.512;10.206;2023-02-26T10:58:57;4.30;99.90
45729;DHT22;31439;53.512;10.206;2023-02-26T11:01:26;4.30;99.90
45729;DHT22;31439;53.512;10.206;2023-02-26T11:04:03;4.30;99.90
45729;DHT22;31439;53.512;10.206;2023-02-26T11:06:37;4.40;99.90
45729;DHT22;31439;53.512;10.206;2023-02-26T11:09:06;4.50;99.90
45729;DHT22;31439;53.512;10.206;2023-02-26T11:14:26;4.70;99.90
45729;DHT22;31439;53.512;10.206;2023-02-26T11:16:55;4.70;99.90
45729;DHT22;31439;53.512;10.206;2023-02-26T11:19:52;4.80;99.90
45729;DHT22;31439;53.512;10.206;2023-02-26T11:22:21;5.10;99.90
45729;DHT22;31439;53.512;10.206;2023-02-26T11:24:48;5.10;99.90
45729;DHT22;31439;53.512;10.206;2023-02-26T11:27:38;5.10;99.90
45729;DHT22;31439;53.512;10.206;2023-02-26T11:30:09;5.20;99.90
45729;DHT22;31439;53.512;10.206;2023-02-26T11:32:42;4.90;99.90
45729;DHT22;31439;53.512;10.206;2023-02-26T11:35:13;4.80;99.90
45729;DHT22;31439;53.512;10.206;2023-02-26T11:37:46;4.50;99.90
45729;DHT22;31439;53.512;10.206;2023-02-26T11:40:23;4.40;99.90
45729;DHT22;31439;53.512;10.206;2023-02-26T11:43:04;4.30;99.90
45729;DHT22;31439;53.512;10.206;2023-02-26T11:45:30;4.30;99.90
45729;DHT22;31439;53.512;10.206;2023-02-26T11:48:02;4.70;99.90
45729;DHT22;31439;53.512;10.206;2023-02-26T11:50:39;4.90;99.90
45729;DHT22;31439;53.512;10.206;2023-02-26T11:53:14;4.80;99.90
45729;DHT22;31439;53.512;10.206;2023-02-26T11:55:44;4.70;99.90
45729;DHT22;31439;53.512;10.206;2023-02-26T11:58:22;4.90;99.90
45729;DHT22;31439;53.512;10.206;2023-02-26T12:00:51;5.40;99.90
45729;DHT22;31439;53.512;10.206;2023-02-26T12:03:23;5.80;99.90
45729;DHT22;31439;53.512;10.206;2023-02-26T12:05:52;6.10;99.90
45729;DHT22;31439;53.512;10.206;2023-02-26T12:08:35;6.00;99.90
45729;DHT22;31439;53.512;10.206;2023-02-26T12:16:34;5.60;99.90
45729;DHT22;31439;53.512;10.206;2023-02-26T12:32:48;5.20;99.90
45729;DHT22;31439;53.512;10.206;2023-02-26T12:35:24;5.10;99.90
45729;DHT22;31439;53.512;10.206;2023-02-26T12:51:24;4.80;99.90
45729;DHT22;31439;53.512;10.206;2023-02-26T12:59:38;5.00;99.90
45729;DHT22;31439;53.512;10.206;2023-02-26T13:05:31;5.20;99.90
45729;DHT22;31439;53.512;10.206;2023-02-26T13:08:14;5.40;99.90
45729;DHT22;31439;53.512;10.206;2023-02-26T13:11:09;5.50;99.90
45729;DHT22;31439;53.512;10.206;2023-02-26T13:16:15;6.50;99.90
45729;DHT22;31439;53.512;10.206;2023-02-26T13:19:10;6.90;99.90
45729;DHT22;31439;53.512;10.206;2023-02-26T13:21:37;7.10;99.90
45729;DHT22;31439;53.512;10.206;2023-02-26T13:24:45;6.90;99.90
45729;DHT22;31439;53.512;10.206;2023-02-26T13:27:10;6.80;99.90
45729;DHT22;31439;53.512;10.206;2023-02-26T13:29:41;6.50;99.90
45729;DHT22;31439;53.512;10.206;2023-02-26T13:32:31;6.40;99.90
45729;DHT22;31439;53.512;10.206;2023-02-26T13:35:29;6.20;99.90
45729;DHT22;31439;53.512;10.206;2023-02-26T13:37:58;6.50;99.90
45729;DHT22;31439;53.512;10.206;2023-02-26T13:40:42;6.40;99.90
45729;DHT22;31439;53.512;10.206;2023-02-26T13:43:23;6.30;99.90
45729;DHT22;31439;53.512;10.206;2023-02-26T13:46:14;6.70;99.90
45729;DHT22;31439;53.512;10.206;2023-02-26T13:51:48;7.10;99.90
45729;DHT22;31439;53.512;10.206;2023-02-26T14:00:07;8.70;99.90
45729;DHT22;31439;53.512;10.206;2023-02-26T14:02:46;7.30;99.90
45729;DHT22;31439;53.512;10.206;2023-02-26T14:05:33;6.60;99.90
45729;DHT22;31439;53.512;10.206;2023-02-26T14:11:01;5.90;99.90
45729;DHT22;31439;53.512;10.206;2023-02-26T14:13:35;5.70;99.90
45729;DHT22;31439;53.512;10.206;2023-02-26T14:16:41;5.50;99.90
45729;DHT22;31439;53.512;10.206;2023-02-26T14:24:57;5.70;99.90
45729;DHT22;31439;53.512;10.206;2023-02-26T14:27:35;6.00;99.90
45729;DHT22;31439;53.512;10.206;2023-02-26T14:35:39;6.30;99.90
45729;DHT22;31439;53.512;10.206;2023-02-26T14:38:19;6.20;99.90
45729;DHT22;31439;53.512;10.206;2023-02-26T14:40:50;6.20;99.90
45729;DHT22;31439;53.512;10.206;2023-02-26T14:45:54;6.80;99.90
45729;DHT22;31439;53.512;10.206;2023-02-26T14:48:22;7.30;99.90
45729;DHT22;31439;53.512;10.206;2023-02-26T14:54:24;6.60;99.90
45729;DHT22;31439;53.512;10.206;2023-02-26T14:56:59;6.40;99.90
45729;DHT22;31439;53.512;10.206;2023-02-26T15:05:16;7.40;99.90
45729;DHT22;31439;53.512;10.206;2023-02-26T15:10:40;7.20;99.90
45729;DHT22;31439;53.512;10.206;2023-02-26T15:19:03;6.40;99.90
45729;DHT22;31439;53.512;10.206;2023-02-26T15:21:59;6.30;99.90
45729;DHT22;31439;53.512;10.206;2023-02-26T15:24:27;6.10;99.90
45729;DHT22;31439;53.512;10.206;2023-02-26T15:26:57;5.90;99.90
45729;DHT22;31439;53.512;10.206;2023-02-26T15:29:28;5.80;99.90
45729;DHT22;31439;53.512;10.206;2023-02-26T15:32:05;5.60;99.90
45729;DHT22;31439;53.512;10.206;2023-02-26T15:34:31;5.60;99.90
45729;DHT22;31439;53.512;10.206;2023-02-26T15:36:58;5.60;99.90
45729;DHT22;31439;53.512;10.206;2023-02-26T15:39:25;5.50;99.90
45729;DHT22;31439;53.512;10.206;2023-02-26T15:41:52;5.30;99.90
45729;DHT22;31439;53.512;10.206;2023-02-26T15:44:27;5.30;99.90
45729;DHT22;31439;53.512;10.206;2023-02-26T15:47:02;5.80;99.90
45729;DHT22;31439;53.512;10.206;2023-02-26T15:49:32;6.10;99.90
45729;DHT22;31439;53.512;10.206;2023-02-26T15:52:01;6.30;99.90
45729;DHT22;31439;53.512;10.206;2023-02-26T15:54:54;6.40;99.90
45729;DHT22;31439;53.512;10.206;2023-02-26T15:57:19;6.60;99.90
45729;DHT22;31439;53.512;10.206;2023-02-26T15:59:52;6.70;99.90
45729;DHT22;31439;53.512;10.206;2023-02-26T16:02:30;6.50;99.90
45729;DHT22;31439;53.512;10.206;2023-02-26T16:04:56;6.20;99.90
45729;DHT22;31439;53.512;10.206;2023-02-26T16:07:22;5.80;99.90
45729;DHT22;31439;53.512;10.206;2023-02-26T16:09:50;5.60;99.90
45729;DHT22;31439;53.512;10.206;2023-02-26T16:14:57;5.10;99.90
45729;DHT22;31439;53.512;10.206;2023-02-26T16:17:26;5.10;99.90
45729;DHT22;31439;53.512;10.206;2023-02-26T16:19:55;5.00;99.90
45729;DHT22;31439;53.512;10.206;2023-02-26T16:25:11;4.90;99.90
45729;DHT22;31439;53.512;10.206;2023-02-26T16:27:40;4.80;99.90
45729;DHT22;31439;53.512;10.206;2023-02-26T16:30:15;4.60;99.90
45729;DHT22;31439;53.512;10.206;2023-02-26T16:32:42;4.60;99.90
45729;DHT22;31439;53.512;10.206;2023-02-26T16:35:14;4.60;99.90
45729;DHT22;31439;53.512;10.206;2023-02-26T16:37:44;4.50;99.90
45729;DHT22;31439;53.512;10.206;2023-02-26T16:40:29;4.40;99.90
45729;DHT22;31439;53.512;10.206;2023-02-26T16:43:04;4.30;99.90
45729;DHT22;31439;53.512;10.206;2023-02-26T16:48:13;4.40;99.90
45729;DHT22;31439;53.512;10.206;2023-02-26T16:50:40;4.40;99.90
45729;DHT22;31439;53.512;10.206;2023-02-26T16:53:18;4.40;99.90
45729;DHT22;31439;53.512;10.206;2023-02-26T16:55:52;4.30;99.90
45729;DHT22;31439;53.512;10.206;2023-02-26T16:58:19;4.30;99.90
45729;DHT22;31439;53.512;10.206;2023-02-26T17:00:51;4.30;99.90
45729;DHT22;31439;53.512;10.206;2023-02-26T17:03:20;4.30;99.90
45729;DHT22;31439;53.512;10.206;2023-02-26T17:08:26;4.10;99.90
45729;DHT22;31439;53.512;10.206;2023-02-26T17:11:05;4.10;99.90
45729;DHT22;31439;53.512;10.206;2023-02-26T17:13:32;4.00;99.90
45729;DHT22;31439;53.512;10.206;2023-02-26T17:16:05;4.00;99.90
45729;DHT22;31439;53.512;10.206;2023-02-26T17:18:34;3.90;99.90
45729;DHT22;31439;53.512;10.206;2023-02-26T17:21:00;3.90;99.90
45729;DHT22;31439;53.512;10.206;2023-02-26T17:23:31;3.90;99.90
45729;DHT22;31439;53.512;10.206;2023-02-26T17:25:58;3.80;99.90
45729;DHT22;31439;53.512;10.206;2023-02-26T17:28:29;3.80;99.90
45729;DHT22;31439;53.512;10.206;2023-02-26T17:30:56;3.60;99.90
45729;DHT22;31439;53.512;10.206;2023-02-26T17:33:21;3.50;99.90
45729;DHT22;31439;53.512;10.206;2023-02-26T17:35:48;3.60;99.90
45729;DHT22;31439;53.512;10.206;2023-02-26T17:38:15;3.50;99.90
45729;DHT22;31439;53.512;10.206;2023-02-26T17:40:45;3.50;99.90
45729;DHT22;31439;53.512;10.206;2023-02-26T17:43:12;3.50;99.90
45729;DHT22;31439;53.512;10.206;2023-02-26T17:45:39;3.50;99.90
45729;DHT22;31439;53.512;10.206;2023-02-26T17:48:05;3.50;99.90
45729;DHT22;31439;53.512;10.206;2023-02-26T17:53:04;3.60;99.90
45729;DHT22;31439;53.512;10.206;2023-02-26T17:55:30;3.60;99.90
45729;DHT22;31439;53.512;10.206;2023-02-26T17:57:57;3.70;99.90
45729;DHT22;31439;53.512;10.206;2023-02-26T18:00:23;5.10;99.90
45729;DHT22;31439;53.512;10.206;2023-02-26T18:02:49;5.60;99.90
45729;DHT22;31439;53.512;10.206;2023-02-26T18:05:18;5.00;99.90
45729;DHT22;31439;53.512;10.206;2023-02-26T18:07:46;4.40;99.90
45729;DHT22;31439;53.512;10.206;2023-02-26T18:10:22;3.90;99.90
45729;DHT22;31439;53.512;10.206;2023-02-26T18:12:48;3.60;99.90
45729;DHT22;31439;53.512;10.206;2023-02-26T18:15:15;3.50;99.90
45729;DHT22;31439;53.512;10.206;2023-02-26T18:17:41;3.40;99.90
45729;DHT22;31439;53.512;10.206;2023-02-26T18:20:15;3.30;99.90
45729;DHT22;31439;53.512;10.206;2023-02-26T18:22:41;3.20;99.90
45729;DHT22;31439;53.512;10.206;2023-02-26T18:25:10;3.10;99.90
45729;DHT22;31439;53.512;10.206;2023-02-26T18:27:36;3.00;99.90
45729;DHT22;31439;53.512;10.206;2023-02-26T18:30:02;3.00;99.90
45729;DHT22;31439;53.512;10.206;2023-02-26T18:32:29;2.90;99.90
45729;DHT22;31439;53.512;10.206;2023-02-26T18:34:54;2.90;99.90
45729;DHT22;31439;53.512;10.206;2023-02-26T18:37:23;2.90;99.90
45729;DHT22;31439;53.512;10.206;2023-02-26T18:39:49;2.80;99.90
45729;DHT22;31439;53.512;10.206;2023-02-26T18:42:24;2.70;99.90
45729;DHT22;31439;53.512;10.206;2023-02-26T18:44:50;2.70;99.90
45729;DHT22;31439;53.512;10.206;2023-02-26T18:47:18;2.70;99.90
45729;DHT22;31439;53.512;10.206;2023-02-26T18:49:47;2.70;99.90
45729;DHT22;31439;53.512;10.206;2023-02-26T18:52:14;2.70;99.90
45729;DHT22;31439;53.512;10.206;2023-02-26T18:54:40;2.70;99.90
45729;DHT22;31439;53.512;10.206;2023-02-26T18:57:07;2.80;99.90
45729;DHT22;31439;53.512;10.206;2023-02-26T18:59:32;2.80;99.90
45729;DHT22;31439;53.512;10.206;2023-02-26T19:02:00;2.70;99.90